Time;durP1;ratioP1;P1;durP2;ratioP2;P2;SDS_P1;SDS_P2;PMS_P1;PMS_P2;Temp;Humidity;BMP_temperature;BMP_pressure;BME280_temperature;BME280_humidity;BME280_pressure;Samples;Min_cycle;Max_cycle;Signal;HPM_P1;HPM_P2
2022/10/19 00:01:16;;;;;;;11.35;6.67;;;;;;;6.40;100.00;100663.53;1709931;83;21043;-62
2022/10/19 00:03:45;;;;;;;14.05;6.85;;;;;;;6.46;100.00;100656.97;1709275;83;20948;-54
2022/10/19 00:06:27;;;;;;;15.23;7.45;;;;;;;6.54;100.00;100651.38;1706035;84;21142;-54
2022/10/19 00:09:08;;;;;;;13.65;6.67;;;;;;;6.57;100.00;100651.58;1705815;84;20999;-56
2022/10/19 00:11:39;;;;;;;11.20;6.87;;;;;;;6.64;100.00;100649.22;1706118;84;20992;-55
2022/10/19 00:14:12;;;;;;;13.03;5.90;;;;;;;6.70;100.00;100646.02;1706322;84;20959;-56
2022/10/19 00:16:42;;;;;;;10.93;6.75;;;;;;;6.72;100.00;100637.63;1705746;84;21522;-56
2022/10/19 00:19:17;;;;;;;16.30;7.58;;;;;;;6.69;100.00;100638.73;1706345;84;20987;-55
2022/10/19 00:21:44;;;;;;;14.10;8.45;;;;;;;6.67;100.00;100645.05;1706320;84;21015;-55
2022/10/19 00:24:11;;;;;;;14.35;9.53;;;;;;;6.58;100.00;100637.17;1706429;83;21391;-55
2022/10/19 00:26:40;;;;;;;16.27;9.38;;;;;;;6.43;100.00;100634.76;1706108;84;21518;-55
2022/10/19 00:29:07;;;;;;;15.03;8.78;;;;;;;6.26;100.00;100636.38;1706389;83;21262;-55
2022/10/19 00:31:35;;;;;;;14.98;8.33;;;;;;;6.12;100.00;100630.88;1706162;84;22435;-56
2022/10/19 00:34:02;;;;;;;14.98;8.30;;;;;;;6.01;100.00;100631.39;1706407;84;21544;-55
2022/10/19 00:36:33;;;;;;;13.80;8.18;;;;;;;5.91;100.00;100633.66;1705607;83;21003;-63
2022/10/19 00:39:01;;;;;;;14.53;8.75;;;;;;;5.76;100.00;100622.99;1706343;83;21415;-55
2022/10/19 00:41:30;;;;;;;16.02;8.23;;;;;;;5.67;100.00;100624.64;1706467;83;20955;-55
2022/10/19 00:44:08;;;;;;;17.30;9.00;;;;;;;5.53;100.00;100620.77;1706201;83;21156;-55
2022/10/19 00:46:37;;;;;;;17.25;8.98;;;;;;;5.47;100.00;100614.84;1689569;84;20995;-57
2022/10/19 00:49:19;;;;;;;14.78;7.45;;;;;;;5.42;100.00;100622.22;1706359;84;21074;-54
2022/10/19 00:51:49;;;;;;;13.35;7.17;;;;;;;5.39;100.00;100622.50;1706549;84;21553;-55
2022/10/19 00:54:16;;;;;;;13.05;7.45;;;;;;;5.38;100.00;100623.46;1705875;83;20960;-56
2022/10/19 00:56:46;;;;;;;10.35;7.30;;;;;;;5.36;100.00;100617.13;1706444;84;22258;-55
2022/10/19 00:59:15;;;;;;;13.95;6.75;;;;;;;5.37;100.00;100614.05;1706428;84;21493;-55
2022/10/19 01:01:43;;;;;;;11.70;6.67;;;;;;;5.39;100.00;100617.33;1706293;84;21038;-55
2022/10/19 01:04:11;;;;;;;11.95;7.25;;;;;;;5.40;100.00;100603.92;1711549;83;20950;-58
2022/10/19 01:06:39;;;;;;;13.13;7.55;;;;;;;5.41;100.00;100602.47;1723499;83;21046;-55
2022/10/19 01:09:07;;;;;;;13.20;8.18;;;;;;;5.37;100.00;100599.83;1723827;83;21137;-56
2022/10/19 01:11:58;;;;;;;13.05;8.10;;;;;;;5.32;100.00;100591.70;1723731;83;20927;-55
2022/10/19 01:14:46;;;;;;;15.23;6.97;;;;;;;5.26;100.00;100587.89;1716180;83;20990;-55
2022/10/19 01:17:41;;;;;;;13.50;7.67;;;;;;;5.17;100.00;100590.52;1723497;83;21069;-54
2022/10/19 01:20:22;;;;;;;16.42;9.63;;;;;;;5.10;100.00;100582.50;1723538;83;21087;-56
2022/10/19 01:23:35;;;;;;;24.18;14.58;;;;;;;5.03;100.00;100574.95;1691315;83;21226;-53
2022/10/19 01:26:30;;;;;;;19.25;12.15;;;;;;;4.98;100.00;100574.09;1723775;83;28551;-53
2022/10/19 01:29:20;;;;;;;25.88;12.80;;;;;;;4.92;100.00;100572.53;1723764;83;20958;-54
2022/10/19 01:32:05;;;;;;;19.90;10.45;;;;;;;4.84;100.00;100563.70;1723459;83;20970;-56
2022/10/19 01:34:36;;;;;;;22.17;12.53;;;;;;;4.77;100.00;100563.10;1723973;83;21543;-54
2022/10/19 01:37:18;;;;;;;36.85;18.02;;;;;;;4.74;100.00;100559.05;1723858;83;21313;-53
2022/10/19 01:40:07;;;;;;;31.00;14.93;;;;;;;4.70;100.00;100556.85;1723944;83;21407;-54
2022/10/19 01:42:51;;;;;;;29.87;14.70;;;;;;;4.63;100.00;100551.45;1722995;83;20991;-54
2022/10/19 01:45:31;;;;;;;34.80;14.65;;;;;;;4.54;100.00;100541.44;1722719;82;22282;-54
2022/10/19 01:48:15;;;;;;;21.87;13.40;;;;;;;4.49;100.00;100540.23;1723685;83;20899;-54
2022/10/19 01:50:48;;;;;;;18.00;11.28;;;;;;;4.44;100.00;100541.13;1722239;83;20955;-54
2022/10/19 01:53:17;;;;;;;15.18;9.28;;;;;;;4.38;100.00;100539.41;1723779;83;21109;-54
2022/10/19 01:55:49;;;;;;;16.42;8.83;;;;;;;4.36;100.00;100539.23;1723858;83;21548;-54
2022/10/19 01:58:20;;;;;;;13.03;7.70;;;;;;;4.35;100.00;100539.68;1723607;83;21045;-64
2022/10/19 02:00:47;;;;;;;13.15;7.85;;;;;;;4.38;100.00;100536.02;1724059;83;22221;-54
2022/10/19 02:03:14;;;;;;;14.87;8.30;;;;;;;4.38;100.00;100543.28;1723726;83;21675;-55
2022/10/19 02:05:41;;;;;;;14.18;8.35;;;;;;;4.42;100.00;100541.25;1712552;83;21019;-57
2022/10/19 02:08:25;;;;;;;11.35;7.67;;;;;;;4.44;100.00;100538.55;1710229;83;20896;-54
2022/10/19 02:10:55;;;;;;;14.83;6.83;;;;;;;4.47;100.00;100533.93;1710426;82;21015;-54
2022/10/19 02:13:22;;;;;;;15.60;7.75;;;;;;;4.52;100.00;100527.88;1710489;83;21022;-54
2022/10/19 02:15:52;;;;;;;12.00;6.50;;;;;;;4.54;100.00;100523.38;1710120;83;21132;-54
2022/10/19 02:18:23;;;;;;;11.68;6.92;;;;;;;4.54;100.00;100523.38;1709849;83;21106;-55
2022/10/19 02:20:52;;;;;;;12.05;7.37;;;;;;;4.53;100.00;100521.75;1710311;83;21205;-54
2022/10/19 02:23:21;;;;;;;10.93;6.50;;;;;;;4.52;100.00;100516.25;1710701;83;21572;-54
2022/10/19 02:25:50;;;;;;;14.93;7.53;;;;;;;4.50;100.00;100515.56;1710520;83;20960;-54
2022/10/19 02:28:17;;;;;;;13.28;6.30;;;;;;;4.50;100.00;100516.86;1709746;83;22361;-56
2022/10/19 02:30:44;;;;;;;11.60;6.53;;;;;;;4.46;100.00;100510.34;1710356;83;21408;-54
2022/10/19 02:33:13;;;;;;;10.98;7.20;;;;;;;4.44;100.00;100507.58;1710360;83;21009;-54
2022/10/19 02:35:41;;;;;;;9.58;7.10;;;;;;;4.39;100.00;100509.25;1710517;83;21015;-54
2022/10/19 02:38:10;;;;;;;10.53;7.03;;;;;;;4.38;100.00;100504.57;1709813;83;20974;-55
2022/10/19 02:40:40;;;;;;;10.35;6.60;;;;;;;4.43;100.00;100500.28;1702186;83;21251;-54
2022/10/19 02:43:13;;;;;;;13.10;6.87;;;;;;;4.48;100.00;100499.41;1710235;83;21018;-54
2022/10/19 02:45:46;;;;;;;12.47;7.45;;;;;;;4.48;100.00;100485.70;1710541;83;20994;-54
2022/10/19 02:48:18;;;;;;;13.15;7.10;;;;;;;4.44;100.00;100477.41;1710248;83;20999;-54
2022/10/19 02:50:48;;;;;;;11.65;6.97;;;;;;;4.38;100.00;100477.95;1710967;83;20999;-54
2022/10/19 02:53:17;;;;;;;11.10;5.90;;;;;;;4.32;100.00;100478.52;1710290;83;21218;-54
2022/10/19 02:55:47;;;;;;;10.00;6.37;;;;;;;4.30;100.00;100473.48;1710250;83;20948;-63
2022/10/19 02:58:15;;;;;;;11.88;6.40;;;;;;;4.32;100.00;100474.64;1701778;83;21391;-54
2022/10/19 03:00:42;;;;;;;10.70;7.08;;;;;;;4.35;100.00;100470.00;1710540;83;21600;-53
2022/10/19 03:03:10;;;;;;;10.70;6.30;;;;;;;4.31;100.00;100463.96;1710512;83;21121;-53
2022/10/19 03:05:38;;;;;;;14.70;7.17;;;;;;;4.32;100.00;100456.58;1707594;83;21259;-53
2022/10/19 03:08:05;;;;;;;12.68;7.53;;;;;;;4.33;100.00;100460.30;1705700;84;21004;-57
2022/10/19 03:10:33;;;;;;;12.65;6.97;;;;;;;4.32;100.00;100464.33;1706280;83;21824;-55
2022/10/19 03:13:02;;;;;;;10.72;6.97;;;;;;;4.34;100.00;100453.38;1706261;84;21921;-55
2022/10/19 03:15:30;;;;;;;11.00;7.45;;;;;;;4.35;100.00;100454.99;1706443;84;20868;-55
2022/10/19 03:17:58;;;;;;;12.10;7.53;;;;;;;4.33;100.00;100449.17;1705565;84;21145;-58
2022/10/19 03:20:26;;;;;;;11.63;6.97;;;;;;;4.41;100.00;100449.29;1706336;84;21384;-56
2022/10/19 03:22:53;;;;;;;16.75;8.28;;;;;;;4.38;100.00;100449.08;1706364;83;20999;-56
2022/10/19 03:25:21;;;;;;;12.23;7.53;;;;;;;4.38;100.00;100440.53;1706499;84;21466;-55
2022/10/19 03:27:48;;;;;;;13.53;8.45;;;;;;;4.39;100.00;100439.56;1706382;83;20868;-64
2022/10/19 03:30:15;;;;;;;13.38;7.83;;;;;;;4.39;100.00;100440.86;1705973;83;22279;-54
2022/10/19 03:32:42;;;;;;;13.62;7.78;;;;;;;4.37;100.00;100432.45;1706172;84;21014;-54
2022/10/19 03:35:09;;;;;;;13.40;7.72;;;;;;;4.40;100.00;100433.48;1706469;83;21643;-54
2022/10/19 03:37:37;;;;;;;10.95;7.45;;;;;;;4.31;100.00;100426.06;1706222;84;21451;-56
2022/10/19 03:40:05;;;;;;;14.18;9.05;;;;;;;4.31;100.00;100416.22;1705919;83;20912;-62
2022/10/19 03:42:32;;;;;;;12.35;8.00;;;;;;;4.22;100.00;100414.48;1706305;84;21407;-54
2022/10/19 03:44:59;;;;;;;16.65;8.55;;;;;;;4.20;100.00;100409.92;1706250;84;21030;-54
2022/10/19 03:47:28;;;;;;;16.70;8.58;;;;;;;4.18;100.00;100408.78;1706292;83;20908;-55
2022/10/19 03:49:55;;;;;;;14.23;8.85;;;;;;;4.16;100.00;100406.80;1706372;83;20975;-55
2022/10/19 03:52:23;;;;;;;15.40;8.63;;;;;;;4.15;100.00;100404.70;1705686;84;21604;-63
2022/10/19 03:54:52;;;;;;;13.53;7.90;;;;;;;4.11;100.00;100401.25;1706275;84;21999;-54
2022/10/19 03:57:19;;;;;;;14.75;8.50;;;;;;;4.08;100.00;100389.44;1706418;84;20912;-55
2022/10/19 03:59:47;;;;;;;19.60;8.15;;;;;;;4.09;100.00;100388.50;1706205;84;20916;-54
2022/10/19 04:02:15;;;;;;;15.50;8.18;;;;;;;4.05;100.00;100388.89;1706252;84;21062;-55
2022/10/19 04:04:43;;;;;;;14.50;9.33;;;;;;;4.09;100.00;100376.89;1705937;81;21232;-54
2022/10/19 04:07:11;;;;;;;17.42;8.78;;;;;;;4.08;100.00;100375.72;1706451;84;21121;-55
2022/10/19 04:09:38;;;;;;;13.48;8.58;;;;;;;4.07;100.00;100378.78;1706171;84;20900;-55
2022/10/19 04:12:07;;;;;;;14.53;9.28;;;;;;;4.14;100.00;100370.03;1706285;83;20869;-56
2022/10/19 04:14:35;;;;;;;13.30;8.80;;;;;;;4.19;100.00;100364.44;1705837;84;20995;-55
2022/10/19 04:17:02;;;;;;;14.05;8.45;;;;;;;4.24;100.00;100366.13;1706308;84;21362;-56
2022/10/19 04:19:31;;;;;;;14.93;9.23;;;;;;;4.33;100.00;100374.33;1706222;84;22556;-54
2022/10/19 04:21:58;;;;;;;14.18;8.33;;;;;;;4.43;100.00;100369.94;1706196;84;21711;-55
2022/10/19 04:24:26;;;;;;;13.10;7.37;;;;;;;4.49;100.00;100372.45;1706284;84;21067;-55
2022/10/19 04:26:54;;;;;;;11.60;8.20;;;;;;;4.60;100.00;100372.28;1705892;84;20952;-55
2022/10/19 04:29:23;;;;;;;15.15;9.63;;;;;;;4.68;100.00;100363.34;1706367;83;21843;-54
2022/10/19 04:31:51;;;;;;;14.50;8.48;;;;;;;4.80;100.00;100362.67;1706197;83;21290;-55
2022/10/19 04:34:18;;;;;;;14.63;9.10;;;;;;;4.92;100.00;100361.52;1706436;84;21630;-54
2022/10/19 04:40:00;;;;;;;11.80;8.63;;;;;;;4.73;100.00;100348.22;1795684;79;22763;-56
2022/10/19 04:42:27;;;;;;;12.58;8.40;;;;;;;5.66;100.00;100348.87;1755675;81;20983;-56
2022/10/19 04:44:54;;;;;;;13.98;8.48;;;;;;;6.18;100.00;100342.52;1756024;81;21281;-54
2022/10/19 04:47:21;;;;;;;14.70;9.45;;;;;;;6.51;100.00;100333.13;1756106;81;20900;-55
2022/10/19 04:49:48;;;;;;;12.30;8.53;;;;;;;6.84;100.00;100333.27;1755931;81;21517;-54
2022/10/19 04:52:16;;;;;;;13.20;8.38;;;;;;;7.06;100.00;100330.10;1755802;81;20904;-59
2022/10/19 04:54:45;;;;;;;14.20;7.70;;;;;;;7.29;100.00;100320.43;1756200;81;21620;-55
2022/10/19 04:57:13;;;;;;;10.30;7.15;;;;;;;7.51;100.00;100314.62;1756270;81;20975;-55
2022/10/19 04:59:42;;;;;;;12.03;8.15;;;;;;;7.81;100.00;100312.35;1756071;81;21549;-54
2022/10/19 05:02:09;;;;;;;14.00;8.43;;;;;;;8.08;100.00;100315.56;1755579;81;20928;-56
2022/10/19 05:04:37;;;;;;;12.10;7.83;;;;;;;8.37;100.00;100312.39;1756295;81;21464;-55
2022/10/19 05:07:04;;;;;;;11.67;7.27;;;;;;;8.73;100.00;100312.78;1756193;81;21301;-54
2022/10/19 05:09:33;;;;;;;11.63;8.17;;;;;;;9.05;100.00;100307.09;1756204;81;21350;-56
2022/10/19 05:12:00;;;;;;;13.97;9.10;;;;;;;9.39;100.00;100301.00;1755544;81;21120;-56
2022/10/19 05:14:27;;;;;;;15.07;9.77;;;;;;;9.72;100.00;100291.64;1756346;81;21835;-56
2022/10/19 05:16:55;;;;;;;14.23;9.57;;;;;;;10.11;100.00;100294.02;1756009;81;21687;-56
2022/10/19 05:19:24;;;;;;;13.00;8.50;;;;;;;10.37;100.00;100296.20;1756072;81;21148;-55
2022/10/19 05:21:51;;;;;;;12.47;8.70;;;;;;;10.58;100.00;100285.56;1756132;81;21278;-58
2022/10/19 05:24:18;;;;;;;11.80;7.80;;;;;;;11.10;100.00;100275.38;1755867;80;21340;-56
2022/10/19 05:26:46;;;;;;;11.53;8.40;;;;;;;11.10;100.00;100275.38;1755970;81;22503;-56
2022/10/19 05:29:13;;;;;;;12.20;7.73;;;;;;;11.50;100.00;100274.45;1755905;81;21419;-56
2022/10/19 05:31:40;;;;;;;12.57;8.00;;;;;;;11.92;100.00;100275.69;1756183;81;21573;-56
2022/10/19 05:34:08;;;;;;;12.27;7.57;;;;;;;12.71;100.00;100268.44;1755998;81;22697;-57
2022/10/19 05:36:37;;;;;;;11.70;8.87;;;;;;;13.74;100.00;100261.12;1755991;81;20943;-57
2022/10/19 05:39:16;;;;;;;11.70;9.10;;;;;;;14.76;100.00;100248.61;1749375;81;21051;-56
2022/10/19 05:41:45;;;;;;;12.82;8.63;;;;;;;15.63;100.00;100245.36;1742877;81;21427;-60
2022/10/19 05:44:21;;;;;;;11.90;8.10;;;;;;;16.38;100.00;100242.57;1743082;82;20988;-57
2022/10/19 05:46:50;;;;;;;11.70;7.77;;;;;;;17.02;100.00;100227.95;1743385;81;21241;-56
2022/10/19 05:49:19;;;;;;;12.60;8.80;;;;;;;17.44;100.00;100231.84;1742763;82;21031;-56
2022/10/19 05:51:46;;;;;;;12.37;8.03;;;;;;;17.67;100.00;100230.52;1742096;81;21411;-57
2022/10/19 05:54:15;;;;;;;14.07;9.23;;;;;;;17.83;100.00;100222.45;1742497;81;20944;-56
2022/10/19 05:56:44;;;;;;;12.27;9.30;;;;;;;17.89;99.05;100218.90;1742666;81;20936;-58
2022/10/19 05:59:17;;;;;;;11.37;8.33;;;;;;;18.07;97.21;100211.36;1742389;81;21274;-55
2022/10/19 06:01:45;;;;;;;16.70;10.43;;;;;;;18.65;90.92;100203.73;1742073;82;20901;-54
2022/10/19 06:04:13;;;;;;;12.50;8.87;;;;;;;19.40;82.64;100197.83;1742935;82;21007;-56
2022/10/19 06:06:42;;;;;;;11.70;8.53;;;;;;;20.06;75.16;100194.74;1742749;81;21479;-54
2022/10/19 06:09:09;;;;;;;11.63;9.63;;;;;;;20.76;68.73;100191.80;1742455;81;20885;-55
2022/10/19 06:11:38;;;;;;;10.00;8.10;;;;;;;21.45;63.87;100189.67;1741970;81;21102;-58
2022/10/19 06:14:12;;;;;;;10.98;8.40;;;;;;;22.00;58.79;100184.34;1742687;81;22039;-58
2022/10/19 06:16:40;;;;;;;14.40;8.77;;;;;;;22.18;55.09;100165.84;1742517;81;20964;-55
2022/10/19 06:19:09;;;;;;;15.03;9.50;;;;;;;22.36;54.38;100171.73;1742421;82;21490;-55
2022/10/19 06:21:37;;;;;;;8.95;6.10;;;;;;;22.66;53.40;100162.47;1742013;82;20884;-56
2022/10/19 06:24:05;;;;;;;13.50;8.10;;;;;;;22.85;51.50;100160.08;1742357;82;21318;-54
2022/10/19 06:26:33;;;;;;;10.98;7.92;;;;;;;22.83;50.31;100159.54;1742562;81;20984;-55
2022/10/19 06:29:01;;;;;;;12.68;8.28;;;;;;;22.73;49.78;100158.20;1742450;82;20908;-54
2022/10/19 06:31:33;;;;;;;15.72;11.38;;;;;;;22.45;49.05;100152.34;1742719;81;20905;-55
2022/10/19 06:34:00;;;;;;;8.90;7.60;;;;;;;22.04;51.03;100159.41;1742217;82;20961;-55
2022/10/19 06:36:28;;;;;;;7.10;5.30;;;;;;;22.17;52.51;100155.50;1742394;81;21221;-57
2022/10/19 06:38:55;;;;;;;7.53;4.50;;;;;;;22.58;51.86;100153.17;1742367;82;20960;-54
2022/10/19 06:41:23;;;;;;;7.12;4.37;;;;;;;23.06;50.41;100151.03;1742536;82;20960;-55
2022/10/19 06:43:53;;;;;;;7.40;5.12;;;;;;;23.30;49.61;100151.27;1742255;81;20933;-55
2022/10/19 06:46:22;;;;;;;6.80;4.78;;;;;;;23.49;48.50;100147.50;1742751;82;21059;-55
2022/10/19 06:48:55;;;;;;;8.43;5.53;;;;;;;23.76;47.66;100143.70;1742692;81;21200;-55
2022/10/19 06:51:23;;;;;;;7.30;5.20;;;;;;;23.92;46.79;100130.57;1742591;81;20936;-55
2022/10/19 06:53:50;;;;;;;9.45;4.85;;;;;;;24.08;46.29;100120.62;1742048;81;21525;-58
2022/10/19 06:56:18;;;;;;;7.17;4.10;;;;;;;24.14;45.07;100124.06;1742339;82;21075;-55
2022/10/19 06:58:46;;;;;;;6.40;4.58;;;;;;;23.89;45.12;100119.67;1742816;81;20913;-55
2022/10/19 07:01:14;;;;;;;7.75;4.17;;;;;;;23.63;45.59;100121.63;1742500;81;21261;-56
2022/10/19 07:03:42;;;;;;;5.75;4.22;;;;;;;23.36;45.94;100111.36;1741937;81;21016;-55
2022/10/19 07:06:11;;;;;;;7.37;4.15;;;;;;;23.26;46.34;100116.16;1742328;82;21418;-54
2022/10/19 07:08:39;;;;;;;6.67;4.17;;;;;;;23.31;46.99;100110.84;1742547;82;20993;-55
2022/10/19 07:11:11;;;;;;;4.62;3.35;;;;;;;23.44;46.90;100108.92;1720222;81;21499;-55
2022/10/19 07:13:38;;;;;;;5.35;3.70;;;;;;;23.59;45.92;100099.30;1712467;82;21893;-56
2022/10/19 07:16:10;;;;;;;4.58;3.27;;;;;;;23.54;46.41;100092.13;1712990;83;20956;-55
2022/10/19 07:18:38;;;;;;;5.28;3.33;;;;;;;23.52;46.41;100091.59;1712951;82;21553;-55
2022/10/19 07:21:12;;;;;;;5.83;3.93;;;;;;;23.58;47.01;100087.06;1712903;83;21399;-55
2022/10/19 07:23:40;;;;;;;6.70;4.12;;;;;;;23.81;46.45;100081.66;1712966;82;21038;-55
2022/10/19 07:26:14;;;;;;;6.80;3.90;;;;;;;23.99;46.02;100075.69;1712986;83;21260;-55
2022/10/19 07:28:44;;;;;;;4.92;3.70;;;;;;;24.11;45.98;100070.02;1712705;82;21581;-54
2022/10/19 07:31:13;;;;;;;5.58;4.08;;;;;;;24.30;45.43;100062.95;1678130;85;21022;-57
2022/10/19 07:33:41;;;;;;;8.45;4.33;;;;;;;24.33;44.55;100067.72;1678469;85;21073;-55
2022/10/19 07:36:09;;;;;;;6.62;3.85;;;;;;;24.13;44.87;100060.69;1678751;85;21075;-55
2022/10/19 07:38:36;;;;;;;5.25;3.70;;;;;;;24.13;44.92;100053.20;1712801;83;21166;-55
2022/10/19 07:41:08;;;;;;;6.72;3.80;;;;;;;24.13;45.02;100031.91;1687582;84;21448;-58
2022/10/19 07:43:35;;;;;;;5.55;3.25;;;;;;;24.07;44.39;100046.35;1687642;85;21221;-57
2022/10/19 07:46:06;;;;;;;5.53;3.67;;;;;;;23.95;44.82;100043.50;1687632;84;20951;-55
2022/10/19 07:48:34;;;;;;;4.72;3.40;;;;;;;23.96;44.64;100038.42;1687690;85;21017;-55
2022/10/19 07:51:06;;;;;;;5.87;4.10;;;;;;;23.91;43.99;100036.34;1687540;84;20915;-61
2022/10/19 07:53:34;;;;;;;4.85;3.30;;;;;;;23.71;44.59;100026.60;1687838;85;21026;-55
2022/10/19 07:56:06;;;;;;;5.85;4.10;;;;;;;23.54;44.75;100030.41;1687735;84;21019;-54
2022/10/19 07:58:33;;;;;;;6.08;3.95;;;;;;;23.39;44.54;100025.16;1687739;84;20947;-55
2022/10/19 08:01:05;;;;;;;6.67;3.87;;;;;;;23.09;45.04;100020.77;1687330;84;20963;-62
2022/10/19 08:03:33;;;;;;;6.67;3.20;;;;;;;22.81;45.79;100030.13;1688112;85;21236;-54
2022/10/19 08:06:05;;;;;;;5.00;3.22;;;;;;;22.66;46.29;100023.52;1687595;84;20920;-54
2022/10/19 08:08:32;;;;;;;7.97;5.15;;;;;;;22.65;46.50;100017.92;1687679;85;20955;-54
2022/10/19 08:11:10;;;;;;;6.37;3.95;;;;;;;22.54;47.49;100000.69;1687375;84;20943;-57
2022/10/19 08:13:38;;;;;;;5.97;2.90;;;;;;;22.59;47.18;99998.02;1687733;84;21069;-55
2022/10/19 08:16:05;;;;;;;5.00;3.10;;;;;;;22.71;46.80;99997.72;1687866;84;22235;-54
2022/10/19 08:18:34;;;;;;;5.30;3.40;;;;;;;22.81;46.92;99992.92;1687737;84;20979;-54
2022/10/19 08:21:02;;;;;;;6.13;3.60;;;;;;;22.91;46.01;99981.45;1687146;85;20943;-55
2022/10/19 08:23:29;;;;;;;9.40;3.40;;;;;;;22.93;45.74;99976.70;1687267;85;21260;-54
2022/10/19 08:25:58;;;;;;;5.73;3.23;;;;;;;22.95;45.11;99972.69;1687413;84;20970;-55
2022/10/19 08:28:25;;;;;;;5.43;3.20;;;;;;;22.82;45.07;99972.71;1687608;84;21904;-55
2022/10/19 08:30:56;;;;;;;6.00;3.50;;;;;;;22.75;45.05;99967.42;1687660;84;20932;-59
2022/10/19 08:33:21;;;;;;;6.17;4.43;;;;;;;22.82;45.62;99967.39;1687211;85;20967;-55
2022/10/19 08:35:48;;;;;;;4.43;3.27;;;;;;;23.14;45.28;99962.78;1687643;85;22338;-54
2022/10/19 08:38:15;;;;;;;4.10;2.50;;;;;;;23.39;43.63;99955.20;1687550;84;20892;-54
2022/10/19 08:40:43;;;;;;;6.03;2.67;;;;;;;23.39;41.85;99952.02;1705614;82;21266;-54
2022/10/19 08:43:25;;;;;;;3.53;2.60;;;;;;;23.25;41.25;99945.70;1712510;82;20893;-56
2022/10/19 08:46:20;;;;;;;4.40;2.67;;;;;;;22.93;41.55;99938.16;1678377;85;20904;-54
2022/10/19 08:48:47;;;;;;;5.50;3.43;;;;;;;22.79;41.49;99937.38;1712316;83;20976;-56
2022/10/19 08:51:15;;;;;;;6.03;3.40;;;;;;;22.75;42.07;99924.37;1712677;83;21065;-55
2022/10/19 08:53:57;;;;;;;4.77;3.10;;;;;;;22.80;41.91;99919.56;1712632;82;21248;-55
2022/10/19 08:56:30;;;;;;;4.27;2.40;;;;;;;22.79;41.86;99916.66;1712668;83;21039;-55
2022/10/19 08:59:37;;;;;;;3.93;2.70;;;;;;;22.77;41.66;99912.16;1712344;82;21015;-54
2022/10/19 09:02:15;;;;;;;4.83;2.37;;;;;;;22.75;42.14;99914.28;1676196;85;21532;-61
2022/10/19 09:04:59;;;;;;;4.13;2.43;;;;;;;22.85;42.07;99903.61;1713001;83;21075;-54
2022/10/19 09:07:33;;;;;;;4.67;3.07;;;;;;;22.92;41.85;99894.84;1713005;83;21169;-54
2022/10/19 09:10:07;;;;;;;7.07;3.50;;;;;;;23.00;41.63;99888.16;1678073;85;21017;-54
2022/10/19 09:12:46;;;;;;;6.77;3.27;;;;;;;23.14;42.05;99885.67;1712954;83;21063;-55
2022/10/19 09:15:23;;;;;;;6.67;2.70;;;;;;;23.34;41.23;99882.90;1678210;85;21055;-54
2022/10/19 09:17:50;;;;;;;6.33;3.20;;;;;;;23.52;39.58;99882.24;1678510;85;21830;-54
2022/10/19 09:20:22;;;;;;;6.87;2.50;;;;;;;23.53;39.00;99881.70;1678020;85;21157;-54
2022/10/19 09:23:19;;;;;;;5.77;3.30;;;;;;;23.49;38.80;99871.36;1678136;85;20888;-54
2022/10/19 09:25:48;;;;;;;6.13;2.40;;;;;;;23.47;39.18;99867.62;1678327;85;21063;-56
2022/10/19 09:28:43;;;;;;;6.07;2.83;;;;;;;23.46;37.63;99864.72;1678295;85;21528;-54
2022/10/19 09:31:18;;;;;;;8.53;4.60;;;;;;;23.32;37.48;99854.44;1712295;82;21071;-56
2022/10/19 09:33:50;;;;;;;7.03;4.10;;;;;;;23.19;38.23;99861.73;1712759;82;21416;-54
2022/10/19 09:36:17;;;;;;;6.20;4.20;;;;;;;23.13;37.45;99852.19;1712351;83;21079;-56
2022/10/19 09:38:45;;;;;;;6.73;4.87;;;;;;;23.04;37.39;99843.47;1712749;83;21067;-54
2022/10/19 09:41:22;;;;;;;5.40;3.57;;;;;;;22.99;37.54;99850.66;1713045;82;21510;-56
2022/10/19 09:43:53;;;;;;;4.67;2.40;;;;;;;22.97;37.61;99841.65;1712972;82;21125;-56
2022/10/19 09:46:53;;;;;;;4.23;2.53;;;;;;;23.09;37.39;99843.17;1712312;83;21153;-56
2022/10/19 09:49:40;;;;;;;3.53;1.63;;;;;;;23.22;37.92;99830.58;1706697;82;20977;-57
2022/10/19 09:52:34;;;;;;;3.40;1.80;;;;;;;23.56;36.70;99829.23;1712777;82;20932;-55
2022/10/19 09:55:04;;;;;;;7.07;1.87;;;;;;;23.77;36.23;99820.58;1656831;85;21039;-56
2022/10/19 09:57:31;;;;;;;4.00;2.57;;;;;;;23.75;35.79;99814.73;1678403;85;22154;-55
2022/10/19 09:59:59;;;;;;;2.97;1.63;;;;;;;23.57;36.24;99826.06;1678261;85;21224;-55
2022/10/19 10:02:31;;;;;;;3.60;2.07;;;;;;;23.33;34.98;99814.01;1678619;85;20955;-55
2022/10/19 10:05:06;;;;;;;;;;;;;;;22.93;35.52;99811.37;1680573;85;20980;-62
2022/10/19 10:07:37;;;;;;;4.87;1.80;;;;;;;22.48;35.85;99809.72;1665590;86;20105;-55
2022/10/19 10:10:19;;;;;;;4.43;1.97;;;;;;;22.14;36.88;99810.37;1665403;85;21005;-54
2022/10/19 10:12:46;;;;;;;4.93;2.60;;;;;;;22.00;37.60;99810.11;1648725;86;21976;-58
2022/10/19 10:15:20;;;;;;;5.20;2.70;;;;;;;21.99;36.87;99809.06;1657910;85;21005;-55
2022/10/19 10:17:49;;;;;;;3.03;1.93;;;;;;;21.97;36.95;99809.34;1678337;85;21035;-55
2022/10/19 10:20:22;;;;;;;5.93;2.30;;;;;;;22.01;37.13;99797.13;1678139;85;21032;-55
2022/10/19 10:22:58;;;;;;;4.20;2.30;;;;;;;21.95;37.41;99804.82;1676416;85;20979;-56
2022/10/19 10:25:31;;;;;;;4.43;2.50;;;;;;;21.91;37.18;99795.02;1703074;83;21188;-55
2022/10/19 10:28:02;;;;;;;4.83;1.93;;;;;;;21.95;37.35;99796.86;1712236;83;21514;-57
2022/10/19 10:30:34;;;;;;;3.20;1.60;;;;;;;22.04;36.05;99784.61;1712366;82;21534;-59
2022/10/19 10:33:01;;;;;;;4.20;2.40;;;;;;;22.07;35.72;99777.45;1712856;82;20999;-55
2022/10/19 10:35:35;;;;;;;5.93;3.70;;;;;;;21.97;35.83;99778.83;1712827;82;21142;-56
2022/10/19 10:38:19;;;;;;;5.57;3.33;;;;;;;21.79;36.62;99769.57;1712803;82;21232;-55
2022/10/19 10:41:07;;;;;;;4.03;1.90;;;;;;;21.70;36.77;99778.33;1712030;82;21043;-55
2022/10/19 10:43:36;;;;;;;5.93;3.17;;;;;;;21.67;37.21;99778.86;1678340;85;22211;-55
2022/10/19 10:46:14;;;;;;;9.90;3.83;;;;;;;21.67;37.23;99777.53;1677674;85;21066;-56
2022/10/19 10:48:43;;;;;;;6.03;2.13;;;;;;;21.57;37.33;99775.70;1678380;85;21588;-55
2022/10/19 10:51:35;;;;;;;9.43;3.47;;;;;;;21.43;37.02;99762.19;1678437;85;21174;-55
2022/10/19 10:54:23;;;;;;;7.27;3.20;;;;;;;21.25;37.90;99770.14;1677050;85;21478;-54
2022/10/19 10:57:14;;;;;;;5.27;3.30;;;;;;;21.25;38.37;99767.48;1678312;85;21074;-55
2022/10/19 10:59:53;;;;;;;3.83;2.47;;;;;;;21.28;37.60;99758.19;1712926;83;20976;-56
2022/10/19 11:02:45;;;;;;;4.87;2.60;;;;;;;21.25;37.46;99755.56;1712772;82;21076;-55
2022/10/19 11:05:26;;;;;;;3.60;2.07;;;;;;;21.14;38.13;99755.30;1678256;85;21178;-56
2022/10/19 11:08:02;;;;;;;4.87;3.40;;;;;;;20.94;38.04;99752.08;1678434;85;28688;-55
2022/10/19 11:10:36;;;;;;;8.10;4.77;;;;;;;20.67;38.38;99745.69;1712501;83;20984;-56
2022/10/19 11:13:17;;;;;;;9.97;6.87;;;;;;;20.47;39.04;99746.41;1712910;82;21048;-55
2022/10/19 11:16:12;;;;;;;13.00;8.37;;;;;;;20.36;38.67;99746.11;1712935;82;20889;-57
2022/10/19 11:18:46;;;;;;;9.03;6.30;;;;;;;20.29;39.30;99749.52;1678336;85;21327;-55
2022/10/19 11:21:32;;;;;;;7.90;5.07;;;;;;;20.29;39.58;99741.58;1678286;85;20971;-57
2022/10/19 11:24:32;;;;;;;8.27;5.53;;;;;;;20.33;39.52;99737.36;1712754;83;20999;-57
2022/10/19 11:27:19;;;;;;;9.20;5.30;;;;;;;20.39;40.17;99741.09;1712223;82;20948;-56
2022/10/19 11:30:03;;;;;;;9.47;4.13;;;;;;;20.58;39.90;99740.11;1713019;83;20945;-56
2022/10/19 11:32:55;;;;;;;9.83;4.60;;;;;;;20.67;39.86;99742.25;1677781;84;21367;-57
2022/10/19 11:35:28;;;;;;;6.27;3.70;;;;;;;20.68;40.17;99746.48;1678846;85;21054;-55
2022/10/19 11:38:41;;;;;;;6.53;3.77;;;;;;;20.77;40.44;99740.41;1677637;85;20979;-60
2022/10/19 11:41:28;;;;;;;7.47;4.50;;;;;;;20.93;40.47;99737.25;1712780;82;21034;-57
2022/10/19 11:44:33;;;;;;;10.00;6.80;;;;;;;21.08;40.94;99725.86;1713042;82;20980;-56
2022/10/19 11:47:30;;;;;;;7.40;4.60;;;;;;;21.22;40.64;99718.98;1712828;83;21904;-55
2022/10/19 11:50:33;;;;;;;5.43;3.53;;;;;;;21.30;39.87;99716.31;1678362;84;20932;-65